ETD1VT OMAA-EGLL
Flight info
| Callsign | ETD1VT |
|---|---|
| Flight time | N/A |
| Altitude | 36000 |
| Route | DAXIB Q563 UKUVO G462 TUMAK L602 GADSI M860 NINVA UM860 SRT/N0489F380 UM860 CRM UL746 GOKPA UM10 TIVUG UL852 NEGEM DCT DEGET DCT BEGLA DCT DITIS DCT OKG DCT VELIS DCT SWALM DCT TORNU DCT BREDA DCT ABNED L980 LOGAN |
| Aircraft | A35K/H-SDE2E3GHIJ3J4J5LM1ORWXY/LB1D1 |
Departure
| Time | 2026-04-29 11:59 |
|---|---|
| Airport | Zayed International Airport (OMAA) |
Arrival
| Time | N/A |
|---|---|
| Airport | London Heathrow Airport (EGLL) |
| Time | Latitude | Longitude | Altitude | Speed | Heading |
|---|---|---|---|---|---|
| 2026-04-29 11:22 | 24.44788 | 54.64430 | 86 ft | 0 kts | 253° |
| 2026-04-29 11:44 | 24.44789 | 54.64435 | 81 ft | 3 kts | 253° |
| 2026-04-29 11:44 | 24.44797 | 54.64463 | 86 ft | 4 kts | 253° |
| 2026-04-29 11:44 | 24.44803 | 54.64485 | 86 ft | 4 kts | 250° |
| 2026-04-29 11:45 | 24.44811 | 54.64505 | 84 ft | 4 kts | 180° |
| 2026-04-29 11:45 | 24.44797 | 54.64523 | 86 ft | 4 kts | 129° |
| 2026-04-29 11:45 | 24.44792 | 54.64527 | 85 ft | 0 kts | 160° |
| 2026-04-29 11:49 | 24.44790 | 54.64527 | 85 ft | 1 kts | 160° |
| 2026-04-29 11:49 | 24.44754 | 54.64544 | 86 ft | 10 kts | 157° |
| 2026-04-29 11:49 | 24.44673 | 54.64601 | 87 ft | 16 kts | 138° |
| 2026-04-29 11:49 | 24.44598 | 54.64695 | 86 ft | 17 kts | 141° |
| 2026-04-29 11:50 | 24.44503 | 54.64685 | 86 ft | 15 kts | 213° |
| 2026-04-29 11:50 | 24.44417 | 54.64618 | 86 ft | 15 kts | 217° |
| 2026-04-29 11:50 | 24.44330 | 54.64545 | 87 ft | 15 kts | 218° |
| 2026-04-29 11:50 | 24.44270 | 54.64459 | 85 ft | 15 kts | 255° |
| 2026-04-29 11:51 | 24.44205 | 54.64384 | 85 ft | 14 kts | 192° |
| 2026-04-29 11:51 | 24.44134 | 54.64425 | 87 ft | 12 kts | 135° |
| 2026-04-29 11:51 | 24.44074 | 54.64500 | 86 ft | 14 kts | 129° |
| 2026-04-29 11:51 | 24.44012 | 54.64587 | 87 ft | 15 kts | 128° |
| 2026-04-29 11:52 | 24.43943 | 54.64685 | 86 ft | 17 kts | 128° |
| 2026-04-29 11:52 | 24.43868 | 54.64792 | 87 ft | 18 kts | 127° |
| 2026-04-29 11:52 | 24.43804 | 54.64883 | 85 ft | 9 kts | 128° |
| 2026-04-29 11:52 | 24.43760 | 54.64945 | 86 ft | 11 kts | 127° |
| 2026-04-29 11:53 | 24.43709 | 54.65018 | 86 ft | 13 kts | 128° |
| 2026-04-29 11:53 | 24.43651 | 54.65099 | 82 ft | 14 kts | 128° |
| 2026-04-29 11:53 | 24.43586 | 54.65190 | 85 ft | 16 kts | 127° |
| 2026-04-29 11:53 | 24.43516 | 54.65290 | 85 ft | 17 kts | 128° |
| 2026-04-29 11:54 | 24.43437 | 54.65397 | 87 ft | 19 kts | 129° |
| 2026-04-29 11:54 | 24.43362 | 54.65503 | 87 ft | 17 kts | 127° |
| 2026-04-29 11:54 | 24.43288 | 54.65609 | 87 ft | 18 kts | 128° |
| 2026-04-29 11:54 | 24.43209 | 54.65721 | 86 ft | 18 kts | 127° |
| 2026-04-29 11:55 | 24.43131 | 54.65832 | 86 ft | 16 kts | 128° |
| 2026-04-29 11:55 | 24.43057 | 54.65934 | 87 ft | 18 kts | 128° |
| 2026-04-29 11:55 | 24.42978 | 54.66044 | 87 ft | 19 kts | 128° |
| 2026-04-29 11:55 | 24.42896 | 54.66159 | 86 ft | 14 kts | 127° |
| 2026-04-29 11:56 | 24.42836 | 54.66243 | 86 ft | 15 kts | 128° |
| 2026-04-29 11:56 | 24.42771 | 54.66335 | 87 ft | 16 kts | 128° |
| 2026-04-29 11:56 | 24.42699 | 54.66437 | 87 ft | 18 kts | 128° |
| 2026-04-29 11:56 | 24.42621 | 54.66548 | 87 ft | 19 kts | 128° |
| 2026-04-29 11:57 | 24.42542 | 54.66659 | 87 ft | 18 kts | 128° |
| 2026-04-29 11:57 | 24.42478 | 54.66750 | 87 ft | 14 kts | 128° |
| 2026-04-29 11:57 | 24.42412 | 54.66836 | 86 ft | 12 kts | 139° |
| 2026-04-29 11:57 | 24.42336 | 54.66836 | 85 ft | 12 kts | 211° |
| 2026-04-29 11:58 | 24.42260 | 54.66777 | 85 ft | 15 kts | 217° |
| 2026-04-29 11:58 | 24.42197 | 54.66695 | 85 ft | 13 kts | 267° |
| 2026-04-29 11:58 | 24.42213 | 54.66658 | 86 ft | 0 kts | 308° |
| 2026-04-29 11:58 | 24.42282 | 54.66564 | 86 ft | 48 kts | 309° |
| 2026-04-29 11:59 | 24.42622 | 54.66084 | 89 ft | 110 kts | 308° |
| 2026-04-29 11:59 | 24.43207 | 54.65259 | 88 ft | 162 kts | 308° |
| 2026-04-29 11:59 | 24.43930 | 54.64207 | 487 ft | 176 kts | 309° |
| 2026-04-29 11:59 | 24.44669 | 54.63135 | 1009 ft | 175 kts | 310° |
| 2026-04-29 12:00 | 24.45432 | 54.62059 | 1292 ft | 185 kts | 313° |
| 2026-04-29 12:00 | 24.46232 | 54.60958 | 1742 ft | 186 kts | 313° |
| 2026-04-29 12:00 | 24.47070 | 54.59807 | 1946 ft | 201 kts | 314° |
| 2026-04-29 12:00 | 24.47986 | 54.58537 | 2075 ft | 224 kts | 313° |
| 2026-04-29 12:01 | 24.48988 | 54.57129 | 2278 ft | 244 kts | 312° |
| 2026-04-29 12:01 | 24.50056 | 54.55621 | 2606 ft | 255 kts | 310° |
| 2026-04-29 12:01 | 24.51158 | 54.54057 | 3070 ft | 264 kts | 308° |
| 2026-04-29 12:01 | 24.51908 | 54.52990 | 3364 ft | 269 kts | 309° |
| 2026-04-29 12:02 | 24.53056 | 54.51367 | 4041 ft | 268 kts | 308° |
| 2026-04-29 12:02 | 24.54206 | 54.49736 | 4621 ft | 271 kts | 307° |
| 2026-04-29 12:02 | 24.55375 | 54.48079 | 5056 ft | 278 kts | 306° |
| 2026-04-29 12:02 | 24.56957 | 54.45834 | 5755 ft | 281 kts | 306° |
| 2026-04-29 12:03 | 24.58163 | 54.44128 | 6308 ft | 285 kts | 306° |
| 2026-04-29 12:03 | 24.58987 | 54.42963 | 6651 ft | 287 kts | 306° |
| 2026-04-29 12:03 | 24.60213 | 54.41227 | 7210 ft | 288 kts | 305° |
| 2026-04-29 12:03 | 24.61445 | 54.39489 | 7766 ft | 289 kts | 305° |
| 2026-04-29 12:04 | 24.62686 | 54.37740 | 8316 ft | 291 kts | 305° |
| 2026-04-29 12:04 | 24.64050 | 54.36088 | 8813 ft | 295 kts | 317° |
| 2026-04-29 12:04 | 24.65696 | 54.34718 | 9343 ft | 298 kts | 322° |
| 2026-04-29 12:04 | 24.67404 | 54.33418 | 9927 ft | 299 kts | 322° |
| 2026-04-29 12:05 | 24.69132 | 54.32104 | 10331 ft | 307 kts | 322° |
| 2026-04-29 12:05 | 24.70866 | 54.30776 | 10558 ft | 320 kts | 322° |
| 2026-04-29 12:05 | 24.72789 | 54.29298 | 10782 ft | 334 kts | 322° |
| 2026-04-29 12:05 | 24.74697 | 54.27829 | 10996 ft | 346 kts | 322° |
| 2026-04-29 12:06 | 24.76700 | 54.26285 | 11215 ft | 357 kts | 322° |
| 2026-04-29 12:06 | 24.78765 | 54.24693 | 11403 ft | 368 kts | 322° |
| 2026-04-29 12:06 | 24.80892 | 54.23053 | 11588 ft | 378 kts | 322° |
| 2026-04-29 12:06 | 24.83068 | 54.21374 | 11852 ft | 385 kts | 322° |
| 2026-04-29 12:07 | 24.85266 | 54.19679 | 12267 ft | 386 kts | 322° |
| 2026-04-29 12:07 | 24.87472 | 54.17977 | 12701 ft | 388 kts | 322° |
| 2026-04-29 12:07 | 24.89682 | 54.16264 | 13136 ft | 388 kts | 321° |
| 2026-04-29 12:07 | 24.91762 | 54.14377 | 13566 ft | 387 kts | 314° |
| 2026-04-29 12:08 | 24.93662 | 54.12278 | 13989 ft | 386 kts | 311° |
| 2026-04-29 12:08 | 24.95474 | 54.10089 | 14383 ft | 387 kts | 309° |
| 2026-04-29 12:08 | 24.97251 | 54.07850 | 14726 ft | 389 kts | 309° |
| 2026-04-29 12:08 | 24.99029 | 54.05583 | 15085 ft | 392 kts | 308° |
| 2026-04-29 12:09 | 25.00818 | 54.03311 | 15432 ft | 394 kts | 309° |
| 2026-04-29 12:09 | 25.02629 | 54.01031 | 15786 ft | 396 kts | 309° |
| 2026-04-29 12:09 | 25.04455 | 53.98750 | 16139 ft | 398 kts | 309° |
| 2026-04-29 12:09 | 25.06299 | 53.96459 | 16482 ft | 401 kts | 309° |
| 2026-04-29 12:10 | 25.08156 | 53.94158 | 16832 ft | 403 kts | 309° |
| 2026-04-29 12:10 | 25.10027 | 53.91842 | 17187 ft | 405 kts | 308° |
| 2026-04-29 12:10 | 25.11904 | 53.89520 | 17579 ft | 406 kts | 308° |
| 2026-04-29 12:10 | 25.13786 | 53.87188 | 17974 ft | 407 kts | 308° |
| 2026-04-29 12:11 | 25.15673 | 53.84848 | 18294 ft | 409 kts | 308° |
| 2026-04-29 12:11 | 25.17569 | 53.82495 | 18578 ft | 411 kts | 308° |
| 2026-04-29 12:11 | 25.19480 | 53.80133 | 18860 ft | 414 kts | 309° |
| 2026-04-29 12:11 | 25.21554 | 53.77904 | 19165 ft | 418 kts | 314° |
| 2026-04-29 12:12 | 25.23731 | 53.75765 | 19450 ft | 420 kts | 315° |
| 2026-04-29 12:12 | 25.25959 | 53.73658 | 19745 ft | 423 kts | 315° |
| 2026-04-29 12:12 | 25.28220 | 53.71563 | 20011 ft | 425 kts | 316° |
| 2026-04-29 12:12 | 25.30499 | 53.69470 | 20308 ft | 427 kts | 316° |
| 2026-04-29 12:13 | 25.32785 | 53.67372 | 20610 ft | 428 kts | 315° |
| 2026-04-29 12:13 | 25.35078 | 53.65263 | 20903 ft | 430 kts | 315° |
| 2026-04-29 12:13 | 25.37378 | 53.63140 | 21182 ft | 431 kts | 315° |
| 2026-04-29 12:13 | 25.39683 | 53.61006 | 21462 ft | 433 kts | 315° |
| 2026-04-29 12:14 | 25.41996 | 53.58861 | 21743 ft | 435 kts | 315° |
| 2026-04-29 12:14 | 25.44317 | 53.56709 | 22042 ft | 436 kts | 315° |
| 2026-04-29 12:14 | 25.46615 | 53.54577 | 22297 ft | 438 kts | 315° |
| 2026-04-29 12:14 | 25.48956 | 53.52401 | 22574 ft | 440 kts | 314° |
| 2026-04-29 12:15 | 25.51304 | 53.50217 | 22879 ft | 441 kts | 314° |
| 2026-04-29 12:15 | 25.53650 | 53.48035 | 23242 ft | 440 kts | 314° |
| 2026-04-29 12:15 | 25.55999 | 53.45849 | 23499 ft | 442 kts | 314° |
| 2026-04-29 12:15 | 25.58358 | 53.43652 | 23704 ft | 443 kts | 314° |
| 2026-04-29 12:16 | 25.60721 | 53.41450 | 23930 ft | 445 kts | 314° |
| 2026-04-29 12:16 | 25.63085 | 53.39237 | 24156 ft | 445 kts | 313° |
| 2026-04-29 12:16 | 25.65426 | 53.36979 | 24385 ft | 446 kts | 313° |
| 2026-04-29 12:16 | 25.67746 | 53.34700 | 24601 ft | 446 kts | 312° |
| 2026-04-29 12:17 | 25.70067 | 53.32406 | 24836 ft | 447 kts | 312° |
| 2026-04-29 12:17 | 25.72394 | 53.30110 | 25105 ft | 447 kts | 312° |
| 2026-04-29 12:17 | 25.74719 | 53.27822 | 25353 ft | 447 kts | 312° |
| 2026-04-29 12:17 | 25.77055 | 53.25529 | 25549 ft | 449 kts | 312° |
| 2026-04-29 12:18 | 25.79399 | 53.23231 | 25740 ft | 450 kts | 312° |
| 2026-04-29 12:18 | 25.81665 | 53.20901 | 25927 ft | 448 kts | 308° |
| 2026-04-29 12:18 | 25.83710 | 53.18258 | 26140 ft | 443 kts | 301° |
| 2026-04-29 12:18 | 25.85338 | 53.15434 | 26342 ft | 438 kts | 293° |
| 2026-04-29 12:19 | 25.86724 | 53.12424 | 26531 ft | 438 kts | 291° |
| 2026-04-29 12:19 | 25.88018 | 53.09369 | 26733 ft | 438 kts | 290° |
| 2026-04-29 12:19 | 25.89273 | 53.06272 | 26918 ft | 439 kts | 289° |
| 2026-04-29 12:19 | 25.90508 | 53.03172 | 27111 ft | 440 kts | 289° |
| 2026-04-29 12:20 | 25.91745 | 53.00060 | 27296 ft | 441 kts | 289° |
| 2026-04-29 12:20 | 25.92990 | 52.96944 | 27488 ft | 442 kts | 289° |
| 2026-04-29 12:20 | 25.94245 | 52.93821 | 27668 ft | 443 kts | 290° |
| 2026-04-29 12:20 | 25.95509 | 52.90690 | 27864 ft | 444 kts | 290° |
| 2026-04-29 12:21 | 25.96779 | 52.87552 | 28039 ft | 445 kts | 290° |
| 2026-04-29 12:21 | 25.98050 | 52.84414 | 28223 ft | 446 kts | 290° |
| 2026-04-29 12:21 | 25.99325 | 52.81264 | 28395 ft | 447 kts | 290° |
| 2026-04-29 12:21 | 26.00602 | 52.78107 | 28572 ft | 448 kts | 290° |
| 2026-04-29 12:22 | 26.01881 | 52.74943 | 28717 ft | 449 kts | 290° |
| 2026-04-29 12:22 | 26.03198 | 52.71784 | 28915 ft | 451 kts | 291° |